createdAt,value
2023-04-08T00:01:09.224Z,9.33
2023-04-08T00:03:37.137Z,10.77
2023-04-08T00:06:05.387Z,10.13
2023-04-08T00:08:33.217Z,12.17
2023-04-08T00:11:01.136Z,9.83
2023-04-08T00:13:30.440Z,11.50
2023-04-08T00:15:58.436Z,10.23
2023-04-08T00:18:27.108Z,11.33
2023-04-08T00:20:54.809Z,14.57
2023-04-08T00:23:22.557Z,10.47
2023-04-08T00:25:51.009Z,9.90
2023-04-08T00:28:18.743Z,12.20
2023-04-08T00:30:47.831Z,10.98
2023-04-08T00:33:16.581Z,12.00
2023-04-08T00:35:44.331Z,11.83
2023-04-08T00:38:12.163Z,11.83
2023-04-08T00:40:39.977Z,12.03
2023-04-08T00:43:07.719Z,11.23
2023-04-08T00:45:35.581Z,12.30
2023-04-08T00:48:05.745Z,13.20
2023-04-08T00:50:33.501Z,12.20
2023-04-08T00:53:01.271Z,11.23
2023-04-08T00:55:29.163Z,13.13
2023-04-08T00:57:57.213Z,11.47
2023-04-08T01:00:25.375Z,12.07
2023-04-08T01:03:04.259Z,11.73
2023-04-08T01:05:41.518Z,11.00
2023-04-08T01:08:11.282Z,12.03
2023-04-08T01:10:42.856Z,13.20
2023-04-08T01:13:13.083Z,15.43
2023-04-08T01:15:43.340Z,12.67
2023-04-08T01:18:13.450Z,11.90
2023-04-08T01:20:43.677Z,16.23
2023-04-08T01:23:19.163Z,14.50
2023-04-08T01:25:50.583Z,13.60
2023-04-08T01:28:20.126Z,12.60
2023-04-08T01:30:48.811Z,15.17
2023-04-08T01:33:19.263Z,13.93
2023-04-08T01:35:47.218Z,14.30
2023-04-08T01:38:18.005Z,15.50
2023-04-08T01:40:47.059Z,15.13
2023-04-08T01:43:18.537Z,13.70
2023-04-08T01:45:47.731Z,14.03
2023-04-08T01:48:16.269Z,14.27
2023-04-08T01:50:45.498Z,15.37
2023-04-08T01:53:13.633Z,12.40
2023-04-08T01:55:42.779Z,13.40
2023-04-08T01:58:18.200Z,12.90
2023-04-08T02:00:48.371Z,13.53
2023-04-08T02:03:19.835Z,11.50
2023-04-08T02:05:47.975Z,13.77
2023-04-08T02:08:15.777Z,12.73
2023-04-08T02:10:43.480Z,15.80
2023-04-08T02:13:11.237Z,13.73
2023-04-08T02:15:42.999Z,12.60
2023-04-08T02:18:16.910Z,11.90
2023-04-08T02:20:48.612Z,12.93
2023-04-08T02:23:21.566Z,13.33
2023-04-08T02:25:50.947Z,13.50
2023-04-08T02:28:20.656Z,12.50
2023-04-08T02:30:51.549Z,13.63
2023-04-08T02:33:22.221Z,17.20
2023-04-08T02:35:54.511Z,16.45
2023-04-08T02:38:23.915Z,13.57
2023-04-08T02:40:52.116Z,17.10
2023-04-08T02:43:19.842Z,14.80
2023-04-08T02:45:47.732Z,16.83
2023-04-08T02:48:15.478Z,15.33
2023-04-08T02:50:44.503Z,14.17
2023-04-08T02:53:12.937Z,17.27
2023-04-08T02:55:40.696Z,16.47
2023-04-08T02:58:08.457Z,21.23
2023-04-08T03:00:37.189Z,16.17
2023-04-08T03:03:05.061Z,16.27
2023-04-08T03:05:33.150Z,16.23
2023-04-08T03:08:02.234Z,18.27
2023-04-08T03:10:30.259Z,17.93
2023-04-08T03:12:57.993Z,14.30
2023-04-08T03:15:25.755Z,16.80
2023-04-08T03:17:53.469Z,22.60
2023-04-08T03:20:21.249Z,16.60
2023-04-08T03:22:49.322Z,17.37
2023-04-08T03:25:18.514Z,16.83
2023-04-08T03:27:46.286Z,14.97
2023-04-08T03:30:14.296Z,19.47
2023-04-08T03:32:42.250Z,20.47
2023-04-08T03:35:11.047Z,20.00
2023-04-08T03:37:38.744Z,20.30
2023-04-08T03:40:07.737Z,19.00
2023-04-08T03:42:36.836Z,19.10
2023-04-08T03:45:05.021Z,22.20
2023-04-08T03:47:32.739Z,19.50
2023-04-08T03:50:00.566Z,19.10
2023-04-08T03:52:28.254Z,18.47
2023-04-08T03:54:55.956Z,18.60
2023-04-08T03:57:23.641Z,18.63
2023-04-08T03:59:52.721Z,19.80
2023-04-08T04:02:20.510Z,21.93
2023-04-08T04:04:48.276Z,23.87
2023-04-08T04:07:16.413Z,22.93
2023-04-08T04:09:44.113Z,21.87
2023-04-08T04:12:11.810Z,21.10
2023-04-08T04:14:39.522Z,23.10
2023-04-08T04:17:08.557Z,21.87
2023-04-08T04:19:36.725Z,18.70
2023-04-08T04:22:04.412Z,23.60
2023-04-08T04:24:32.145Z,22.87
2023-04-08T04:26:59.835Z,22.60
2023-04-08T04:29:27.550Z,19.77
2023-04-08T04:31:55.241Z,21.93
2023-04-08T04:34:24.295Z,21.87
2023-04-08T04:36:51.981Z,21.93
2023-04-08T04:39:19.691Z,22.50
2023-04-08T04:41:49.024Z,23.10
2023-04-08T04:44:16.905Z,21.13
2023-04-08T04:46:44.717Z,24.93
2023-04-08T04:49:12.530Z,21.97
2023-04-08T04:51:41.590Z,21.67
2023-04-08T04:54:09.312Z,21.67
2023-04-08T04:56:37.027Z,19.73
2023-04-08T04:59:05.819Z,21.23
2023-04-08T05:01:33.647Z,20.13
2023-04-08T05:04:01.432Z,25.73
2023-04-08T05:06:29.243Z,22.10
2023-04-08T05:08:58.274Z,22.70
2023-04-08T05:11:26.114Z,19.30
2023-04-08T05:13:53.848Z,21.10
2023-04-08T05:16:21.599Z,20.70
2023-04-08T05:18:49.525Z,18.47
2023-04-08T05:21:17.501Z,18.40
2023-04-08T05:23:45.262Z,21.50
2023-04-08T05:26:16.324Z,20.90
2023-04-08T05:28:44.271Z,21.37
2023-04-08T05:31:12.389Z,20.77
2023-04-08T05:33:40.370Z,21.00
2023-04-08T05:36:08.315Z,19.93
2023-04-08T05:38:36.060Z,20.30
2023-04-08T05:41:03.793Z,17.67
2023-04-08T05:43:33.953Z,18.30
2023-04-08T05:46:01.671Z,21.60
2023-04-08T05:48:29.363Z,20.63
2023-04-08T05:50:57.094Z,18.70
2023-04-08T05:53:25.359Z,21.60
2023-04-08T05:55:53.092Z,19.50
2023-04-08T05:58:20.809Z,19.07
2023-04-08T06:00:49.875Z,18.90
2023-04-08T06:03:20.265Z,24.00
2023-04-08T06:05:48.448Z,22.55
2023-04-08T06:08:16.320Z,20.00
2023-04-08T06:10:50.017Z,23.13
2023-04-08T06:13:17.972Z,19.13
2023-04-08T06:15:45.711Z,22.43
2023-04-08T06:18:14.765Z,17.93
2023-04-08T06:20:42.464Z,18.13
2023-04-08T06:23:10.273Z,26.33
2023-04-08T06:25:38.039Z,22.20
2023-04-08T06:28:05.914Z,21.73
2023-04-08T06:30:33.645Z,22.20
2023-04-08T06:33:01.418Z,20.43
2023-04-08T06:35:31.855Z,21.23
2023-04-08T06:38:00.349Z,21.03
2023-04-08T06:40:28.164Z,20.10
2023-04-08T06:42:55.943Z,19.37
2023-04-08T06:45:23.942Z,16.93
2023-04-08T06:47:51.769Z,19.50
2023-04-08T06:50:19.483Z,16.17
2023-04-08T06:52:48.635Z,16.60
2023-04-08T06:55:16.519Z,17.70
2023-04-08T06:57:44.204Z,15.60
2023-04-08T07:00:12.746Z,21.17
2023-04-08T07:02:40.651Z,19.40
2023-04-08T07:05:09.059Z,23.00
2023-04-08T07:07:37.426Z,19.70
2023-04-08T07:10:09.667Z,17.73
2023-04-08T07:12:38.624Z,16.90
2023-04-08T07:15:07.548Z,17.67
2023-04-08T07:17:35.305Z,15.10
2023-04-08T07:20:03.061Z,15.93
2023-04-08T07:22:30.860Z,18.03
2023-04-08T07:24:58.632Z,19.50
2023-04-08T07:27:27.676Z,14.63
2023-04-08T07:29:55.925Z,15.87
2023-04-08T07:32:23.704Z,18.60
2023-04-08T07:34:51.761Z,18.93
2023-04-08T07:37:19.501Z,16.63
2023-04-08T07:39:47.278Z,16.70
2023-04-08T07:42:15.000Z,14.10
2023-04-08T07:44:44.103Z,14.90
2023-04-08T07:47:11.872Z,20.33
2023-04-08T07:49:39.806Z,15.63
2023-04-08T07:52:07.883Z,16.33
2023-04-08T07:54:35.734Z,17.37
2023-04-08T07:57:03.560Z,20.73
2023-04-08T07:59:33.448Z,14.80
2023-04-08T08:02:02.629Z,14.50
2023-04-08T08:04:31.043Z,16.00
2023-04-08T08:06:58.942Z,15.90
2023-04-08T08:09:26.670Z,18.90
2023-04-08T08:11:54.413Z,14.10
2023-04-08T08:14:22.338Z,18.10
2023-04-08T08:16:50.589Z,14.73
2023-04-08T08:19:19.661Z,17.80
2023-04-08T08:21:47.411Z,14.90
2023-04-08T08:24:15.260Z,16.40
2023-04-08T08:26:45.047Z,15.10
2023-04-08T08:29:12.750Z,15.13
2023-04-08T08:31:40.612Z,22.57
2023-04-08T08:34:08.475Z,12.97
2023-04-08T08:36:37.593Z,15.90
2023-04-08T08:39:05.585Z,12.93
2023-04-08T08:41:37.676Z,14.00
2023-04-08T08:44:07.587Z,11.73
2023-04-08T08:46:35.786Z,12.03
2023-04-08T08:49:03.729Z,13.03
2023-04-08T08:51:32.711Z,11.60
2023-04-08T08:54:04.879Z,12.80
2023-04-08T08:56:34.425Z,13.93
2023-04-08T08:59:02.322Z,11.87
2023-04-08T09:01:34.677Z,12.70
2023-04-08T09:04:11.114Z,12.37
2023-04-08T09:06:39.084Z,11.80
2023-04-08T09:09:10.429Z,13.53
2023-04-08T09:11:39.722Z,12.80
2023-04-08T09:14:18.070Z,12.37
2023-04-08T09:16:45.887Z,14.83
2023-04-08T09:19:13.860Z,12.00
2023-04-08T09:21:42.310Z,14.67
2023-04-08T09:24:28.682Z,13.70
2023-04-08T09:26:57.170Z,11.10
2023-04-08T09:29:27.104Z,12.07
2023-04-08T09:31:57.569Z,10.47
2023-04-08T09:34:28.551Z,11.00
2023-04-08T09:36:56.918Z,11.90
2023-04-08T09:39:26.307Z,11.60
2023-04-08T09:41:58.974Z,12.47
2023-04-08T09:44:29.527Z,12.33
2023-04-08T09:47:02.762Z,9.90
2023-04-08T09:49:34.799Z,12.73
2023-04-08T09:52:09.278Z,11.93
2023-04-08T09:54:49.073Z,11.57
2023-04-08T09:57:37.928Z,10.70
2023-04-08T10:00:10.812Z,12.90
2023-04-08T10:02:46.643Z,12.33
2023-04-08T10:05:15.404Z,12.60
2023-04-08T10:07:43.326Z,11.20
2023-04-08T10:10:13.052Z,11.60
2023-04-08T10:12:41.156Z,12.70
2023-04-08T10:15:26.192Z,10.93
2023-04-08T10:17:56.354Z,12.57
2023-04-08T10:20:42.439Z,13.80
2023-04-08T10:23:13.369Z,11.37
2023-04-08T10:25:43.474Z,13.53
2023-04-08T10:28:29.860Z,12.70
2023-04-08T10:30:58.575Z,13.00
2023-04-08T10:33:34.516Z,13.60
2023-04-08T10:36:11.339Z,12.93
2023-04-08T10:38:39.514Z,15.03
2023-04-08T10:41:08.639Z,13.73
2023-04-08T10:43:37.001Z,14.97
2023-04-08T10:46:05.569Z,14.23
2023-04-08T10:48:33.354Z,13.03
2023-04-08T10:51:02.195Z,13.67
2023-04-08T10:53:31.387Z,10.97
2023-04-08T10:56:06.839Z,14.63
2023-04-08T10:58:36.312Z,12.17
2023-04-08T11:01:06.358Z,14.67
2023-04-08T11:03:34.925Z,23.20
2023-04-08T11:06:03.404Z,14.70
2023-04-08T11:08:32.269Z,14.30
2023-04-08T11:11:01.236Z,16.53
2023-04-08T11:13:29.138Z,13.23
2023-04-08T11:15:59.298Z,12.73
2023-04-08T11:18:27.466Z,15.60
2023-04-08T11:20:55.906Z,14.67
2023-04-08T11:23:26.425Z,15.10
2023-04-08T11:25:54.622Z,16.50
2023-04-08T11:28:23.114Z,13.80
2023-04-08T11:30:51.247Z,15.77
2023-04-08T11:33:20.510Z,14.83
2023-04-08T11:35:52.454Z,14.40
2023-04-08T11:38:24.186Z,14.33
2023-04-08T11:40:55.499Z,15.30
2023-04-08T11:43:23.471Z,14.77
2023-04-08T11:45:51.548Z,16.80
2023-04-08T11:48:21.156Z,16.70
2023-04-08T11:50:50.681Z,13.30
2023-04-08T11:53:19.569Z,16.30
2023-04-08T11:55:48.393Z,16.97
2023-04-08T11:58:16.434Z,15.77
2023-04-08T12:00:45.577Z,16.77
2023-04-08T12:03:14.089Z,15.80
2023-04-08T12:05:43.491Z,15.80
2023-04-08T12:08:11.200Z,16.53
2023-04-08T12:10:38.984Z,17.90
2023-04-08T12:13:06.728Z,17.53
2023-04-08T12:15:34.657Z,17.20
2023-04-08T12:18:02.430Z,14.90
2023-04-08T12:20:30.333Z,17.27
2023-04-08T12:22:59.384Z,16.30
2023-04-08T12:25:27.645Z,16.97
2023-04-08T12:27:55.517Z,16.43
2023-04-08T12:30:23.249Z,20.13
2023-04-08T12:32:50.985Z,17.57
2023-04-08T12:35:18.744Z,15.30
2023-04-08T12:37:47.132Z,16.47
2023-04-08T12:40:28.707Z,18.47
2023-04-08T12:42:56.463Z,20.50
2023-04-08T12:45:24.432Z,19.50
2023-04-08T12:47:52.189Z,17.90
2023-04-08T12:50:19.932Z,20.00
2023-04-08T12:52:47.732Z,16.77
2023-04-08T12:55:16.238Z,21.93
2023-04-08T12:57:45.351Z,19.47
2023-04-08T13:00:14.350Z,17.53
2023-04-08T13:02:42.648Z,18.63
2023-04-08T13:05:10.955Z,17.70
2023-04-08T13:07:38.676Z,21.70
2023-04-08T13:10:07.818Z,18.80
2023-04-08T13:12:35.665Z,18.17
2023-04-08T13:15:06.166Z,18.60
2023-04-08T13:17:34.322Z,20.70
2023-04-08T13:20:02.536Z,20.23
2023-04-08T13:22:30.279Z,18.63
2023-04-08T13:24:58.072Z,19.50
2023-04-08T13:27:25.836Z,19.90
2023-04-08T13:29:53.510Z,17.47
2023-04-08T13:32:22.653Z,21.47
2023-04-08T13:34:50.505Z,24.03
2023-04-08T13:37:21.418Z,21.80
2023-04-08T13:39:49.115Z,21.80
2023-04-08T13:42:16.808Z,22.30
2023-04-08T13:44:44.528Z,20.83
2023-04-08T13:47:12.507Z,21.10
2023-04-08T13:49:43.282Z,20.63
2023-04-08T13:52:11.330Z,23.43
2023-04-08T13:54:39.004Z,27.20
2023-04-08T13:57:17.993Z,23.38
2023-04-08T13:59:45.675Z,24.00
2023-04-08T14:02:13.462Z,22.40
2023-04-08T14:04:43.210Z,23.37
2023-04-08T14:07:15.748Z,23.67
2023-04-08T14:09:43.923Z,24.20
2023-04-08T14:12:11.712Z,20.30
2023-04-08T14:14:39.418Z,23.17
2023-04-08T14:17:07.227Z,19.80
2023-04-08T14:19:35.283Z,22.87
2023-04-08T14:22:04.386Z,22.20
2023-04-08T14:24:32.139Z,22.10
2023-04-08T14:26:59.836Z,24.43
2023-04-08T14:29:27.782Z,23.60
2023-04-08T14:31:56.414Z,19.57
2023-04-08T14:34:24.645Z,21.77
2023-04-08T14:36:52.397Z,23.77
2023-04-08T14:39:21.623Z,22.33
2023-04-08T14:41:49.337Z,23.37
2023-04-08T14:44:17.088Z,23.23
2023-04-08T14:46:44.804Z,24.83
2023-04-08T14:49:13.209Z,24.83
2023-04-08T14:51:40.941Z,33.97
2023-04-08T14:54:08.672Z,22.47
2023-04-08T14:56:38.358Z,22.50
2023-04-08T14:59:06.426Z,26.20
2023-04-08T15:01:34.667Z,24.87
2023-04-08T15:04:02.514Z,25.70
2023-04-08T15:06:31.534Z,23.43
2023-04-08T15:08:59.689Z,23.50
2023-04-08T15:11:27.375Z,29.23
2023-04-08T15:13:56.416Z,24.47
2023-04-08T15:16:24.608Z,22.20
2023-04-08T15:18:52.555Z,23.33
2023-04-08T15:21:20.684Z,24.30
2023-04-08T15:23:48.784Z,25.03
2023-04-08T15:26:16.507Z,22.00
2023-04-08T15:28:44.210Z,27.23
2023-04-08T15:31:13.535Z,27.50
2023-04-08T15:33:42.857Z,23.27
2023-04-08T15:36:10.930Z,23.20
2023-04-08T15:38:39.768Z,24.33
2023-04-08T15:41:07.476Z,24.47
2023-04-08T15:43:35.459Z,25.57
2023-04-08T15:46:03.164Z,27.27
2023-04-08T15:48:32.865Z,26.83
2023-04-08T15:51:06.967Z,26.60
2023-04-08T15:53:34.764Z,23.47
2023-04-08T15:56:03.472Z,27.90
2023-04-08T15:58:31.227Z,28.00
2023-04-08T16:00:58.977Z,24.70
2023-04-08T16:03:26.954Z,24.23
2023-04-08T16:05:56.084Z,23.83
2023-04-08T16:08:24.290Z,24.70
2023-04-08T16:10:52.087Z,25.47
2023-04-08T16:13:20.041Z,26.57
2023-04-08T16:15:48.687Z,26.60
2023-04-08T16:18:16.462Z,26.03
2023-04-08T16:20:44.170Z,24.40
2023-04-08T16:23:15.455Z,23.17
2023-04-08T16:25:43.349Z,26.50
2023-04-08T16:28:11.196Z,26.30
2023-04-08T16:30:39.082Z,28.57
2023-04-08T16:33:07.214Z,31.90
2023-04-08T16:35:35.897Z,33.33
2023-04-08T16:38:04.012Z,32.03
2023-04-08T16:40:33.574Z,30.90
2023-04-08T16:43:01.688Z,28.67
2023-04-08T16:45:30.360Z,25.23
2023-04-08T16:47:58.560Z,24.13
2023-04-08T16:50:28.108Z,24.27
2023-04-08T16:52:55.866Z,25.10
2023-04-08T16:55:23.630Z,26.63
2023-04-08T16:57:52.856Z,24.67
2023-04-08T17:00:22.374Z,25.83
2023-04-08T17:02:51.289Z,24.03
2023-04-08T17:05:19.266Z,27.00
2023-04-08T17:07:46.958Z,22.80
2023-04-08T17:10:14.757Z,23.87
2023-04-08T17:12:42.965Z,27.47
2023-04-08T17:15:12.860Z,25.70
2023-04-08T17:17:40.715Z,24.67
2023-04-08T17:20:09.368Z,25.70
2023-04-08T17:22:37.347Z,26.50
2023-04-08T17:25:05.752Z,23.83
2023-04-08T17:27:33.489Z,34.47
2023-04-08T17:30:01.228Z,22.20
2023-04-08T17:32:30.356Z,23.43
2023-04-08T17:34:58.330Z,23.40
2023-04-08T17:37:26.341Z,23.07
2023-04-08T17:39:57.139Z,21.03
2023-04-08T17:42:24.810Z,22.27
2023-04-08T17:44:52.763Z,21.20
2023-04-08T17:47:20.932Z,24.93
2023-04-08T17:49:50.253Z,23.77
2023-04-08T17:52:18.020Z,21.67
2023-04-08T17:54:45.796Z,21.13
2023-04-08T17:57:18.989Z,25.10
2023-04-08T17:59:47.028Z,22.67
2023-04-08T18:02:15.897Z,24.27
2023-04-08T18:04:44.182Z,22.17
2023-04-08T18:07:13.228Z,21.60
2023-04-08T18:09:41.409Z,23.60
2023-04-08T18:12:09.134Z,25.43
2023-04-08T18:14:36.928Z,26.27
2023-04-08T18:17:04.686Z,26.80
2023-04-08T18:19:32.904Z,28.43
2023-04-08T18:22:00.604Z,24.87
2023-04-08T18:24:29.659Z,25.47
2023-04-08T18:27:03.918Z,22.37
2023-04-08T18:29:32.626Z,26.40
2023-04-08T18:32:00.735Z,24.07
2023-04-08T18:34:28.517Z,28.30
2023-04-08T18:37:00.704Z,25.80
2023-04-08T18:39:29.737Z,30.07
2023-04-08T18:41:57.674Z,28.80
2023-04-08T18:44:25.468Z,34.67
2023-04-08T18:46:53.220Z,39.50
2023-04-08T18:49:20.951Z,42.60
2023-04-08T18:52:01.274Z,43.43
2023-04-08T18:54:32.192Z,45.20
2023-04-08T18:57:00.170Z,39.87
2023-04-08T18:59:29.889Z,36.80
2023-04-08T19:01:57.744Z,39.33
2023-04-08T19:04:25.757Z,38.50
2023-04-08T19:06:53.574Z,32.53
2023-04-08T19:09:21.302Z,34.20
2023-04-08T19:11:50.371Z,28.87
2023-04-08T19:14:18.427Z,33.27
2023-04-08T19:16:46.303Z,30.00
2023-04-08T19:19:14.027Z,31.50
2023-04-08T19:21:41.741Z,32.30
2023-04-08T19:24:09.488Z,33.77
2023-04-08T19:26:37.230Z,32.30
2023-04-08T19:29:06.431Z,33.30
2023-04-08T19:31:34.195Z,32.07
2023-04-08T19:34:01.961Z,31.38
2023-04-08T19:36:29.666Z,34.17
2023-04-08T19:38:57.542Z,34.23
2023-04-08T19:41:25.340Z,34.67
2023-04-08T19:43:53.295Z,32.47
2023-04-08T19:46:22.475Z,30.97
2023-04-08T19:48:50.299Z,32.40
2023-04-08T19:51:22.947Z,31.43
2023-04-08T19:53:51.170Z,32.80
2023-04-08T19:56:19.766Z,31.57
2023-04-08T19:58:48.169Z,33.67
2023-04-08T20:01:16.728Z,34.40
2023-04-08T20:03:50.019Z,30.83
2023-04-08T20:06:18.150Z,33.27
2023-04-08T20:08:46.289Z,33.47
2023-04-08T20:11:14.639Z,37.37
2023-04-08T20:13:42.421Z,33.00
2023-04-08T20:16:11.703Z,34.00
2023-04-08T20:18:39.592Z,31.37
2023-04-08T20:21:13.615Z,30.60
2023-04-08T20:23:44.162Z,35.67
2023-04-08T20:26:12.561Z,37.00
2023-04-08T20:28:41.217Z,35.80
2023-04-08T20:31:09.170Z,33.57
2023-04-08T20:33:37.636Z,35.27
2023-04-08T20:36:08.350Z,33.67
2023-04-08T20:38:37.800Z,36.67
2023-04-08T20:41:06.438Z,33.07
2023-04-08T20:43:34.182Z,33.60
2023-04-08T20:46:02.137Z,32.67
2023-04-08T20:48:30.291Z,32.83
2023-04-08T20:50:58.390Z,31.70
2023-04-08T20:53:26.375Z,34.20
2023-04-08T20:55:55.768Z,36.10
2023-04-08T20:58:23.530Z,37.17
2023-04-08T21:00:51.336Z,34.47
2023-04-08T21:03:19.271Z,36.53
2023-04-08T21:05:47.326Z,33.50
2023-04-08T21:08:15.040Z,35.13
2023-04-08T21:10:42.987Z,37.83
2023-04-08T21:13:12.120Z,37.33
2023-04-08T21:15:39.895Z,39.67
2023-04-08T21:18:09.739Z,35.20
2023-04-08T21:20:37.854Z,39.23
2023-04-08T21:23:07.054Z,30.83
2023-04-08T21:25:34.982Z,33.13
2023-04-08T21:28:03.131Z,32.67
2023-04-08T21:30:32.216Z,41.37
2023-04-08T21:32:59.969Z,38.37
2023-04-08T21:35:27.863Z,42.13
2023-04-08T21:37:55.706Z,39.87
2023-04-08T21:40:23.547Z,36.80
2023-04-08T21:42:51.565Z,36.03
2023-04-08T21:45:19.570Z,34.83
2023-04-08T21:47:49.967Z,33.97
2023-04-08T21:50:17.786Z,35.42
2023-04-08T21:52:45.498Z,36.87
2023-04-08T21:55:13.228Z,29.23
2023-04-08T21:57:41.410Z,40.17
2023-04-08T22:00:13.317Z,32.17
2023-04-08T22:02:41.639Z,38.20
2023-04-08T22:05:12.364Z,36.73
2023-04-08T22:07:40.115Z,37.13
2023-04-08T22:10:09.033Z,34.70
2023-04-08T22:12:36.743Z,34.27
2023-04-08T22:15:04.909Z,36.53
2023-04-08T22:17:32.724Z,38.07
2023-04-08T22:20:00.625Z,36.50
2023-04-08T22:22:29.692Z,43.43
2023-04-08T22:24:57.432Z,40.93
2023-04-08T22:27:25.329Z,36.53
2023-04-08T22:29:53.102Z,54.17
2023-04-08T22:32:20.841Z,45.80
2023-04-08T22:34:48.611Z,41.70
2023-04-08T22:37:16.350Z,49.40
2023-04-08T22:39:45.541Z,43.30
2023-04-08T22:42:13.224Z,36.10
2023-04-08T22:44:41.202Z,39.90
2023-04-08T22:47:08.903Z,39.40
2023-04-08T22:49:36.751Z,42.77
2023-04-08T22:52:04.541Z,46.37
2023-04-08T22:54:32.273Z,39.37
2023-04-08T22:57:01.743Z,43.87
2023-04-08T22:59:29.472Z,40.10
2023-04-08T23:01:57.259Z,41.60
2023-04-08T23:04:25.250Z,39.97
2023-04-08T23:06:53.061Z,37.53
2023-04-08T23:09:22.999Z,40.57
2023-04-08T23:11:50.796Z,46.20
2023-04-08T23:14:19.864Z,41.13
2023-04-08T23:16:47.759Z,43.07
2023-04-08T23:19:15.475Z,40.37
2023-04-08T23:22:01.314Z,41.80
2023-04-08T23:24:29.087Z,42.00
2023-04-08T23:26:57.334Z,38.37
2023-04-08T23:29:26.405Z,40.40
2023-04-08T23:31:54.128Z,36.90
2023-04-08T23:34:21.818Z,39.67
2023-04-08T23:36:49.592Z,37.83
2023-04-08T23:39:18.737Z,38.67
2023-04-08T23:41:46.473Z,40.00
2023-04-08T23:44:14.215Z,37.20
2023-04-08T23:46:43.298Z,40.03
2023-04-08T23:49:11.020Z,39.53
2023-04-08T23:51:39.039Z,40.27
2023-04-08T23:54:06.792Z,40.63
2023-04-08T23:56:34.480Z,38.07
2023-04-08T23:59:02.208Z,38.27
